createdAt,value
2023-03-21T00:01:46.759Z,15.50
2023-03-21T00:04:52.523Z,15.50
2023-03-21T00:07:56.093Z,15.40
2023-03-21T00:10:59.702Z,15.40
2023-03-21T00:14:02.685Z,15.40
2023-03-21T00:17:05.361Z,15.30
2023-03-21T00:20:15.307Z,15.30
2023-03-21T00:23:18.274Z,15.20
2023-03-21T00:26:20.337Z,15.10
2023-03-21T00:29:22.392Z,15.10
2023-03-21T00:32:25.540Z,15.10
2023-03-21T00:38:51.036Z,15.20
2023-03-21T00:41:53.077Z,15.10
2023-03-21T00:44:55.126Z,15.10
2023-03-21T00:47:57.467Z,15.10
2023-03-21T00:51:00.631Z,15.00
2023-03-21T00:54:05.630Z,15.00
2023-03-21T00:57:07.799Z,14.90
2023-03-21T01:00:12.543Z,14.90
2023-03-21T01:03:24.450Z,14.80
2023-03-21T01:06:27.630Z,14.80
2023-03-21T01:09:29.765Z,14.70
2023-03-21T01:12:31.876Z,14.70
2023-03-21T01:15:34.071Z,14.70
2023-03-21T01:18:38.815Z,14.70
2023-03-21T01:21:40.724Z,14.60
2023-03-21T01:24:52.383Z,14.60
2023-03-21T01:27:56.194Z,14.60
2023-03-21T01:31:00.534Z,14.50
2023-03-21T01:34:02.597Z,14.50
2023-03-21T01:37:04.646Z,14.50
2023-03-21T01:40:07.160Z,14.40
2023-03-21T01:43:30.360Z,14.40
2023-03-21T01:46:51.459Z,14.40
2023-03-21T01:50:02.435Z,14.40
2023-03-21T01:53:04.646Z,14.30
2023-03-21T01:56:12.404Z,14.30
2023-03-21T01:59:21.714Z,14.30
2023-03-21T02:02:29.992Z,14.20
2023-03-21T02:05:50.619Z,14.20
2023-03-21T02:08:53.452Z,14.20
2023-03-21T02:11:55.907Z,14.10
2023-03-21T02:14:58.572Z,14.10
2023-03-21T02:18:13.246Z,14.10
2023-03-21T02:21:36.217Z,14.10
2023-03-21T02:25:01.464Z,14.10
2023-03-21T02:28:08.057Z,14.00
2023-03-21T02:31:16.589Z,14.10
2023-03-21T02:34:46.348Z,14.10
2023-03-21T02:38:00.826Z,14.10
2023-03-21T02:41:59.694Z,14.00
2023-03-21T02:45:26.101Z,14.00
2023-03-21T02:49:00.528Z,14.00
2023-03-21T02:52:14.442Z,14.10
2023-03-21T02:55:27.376Z,14.00
2023-03-21T02:58:32.217Z,14.00
2023-03-21T03:01:34.389Z,14.00
2023-03-21T03:04:36.511Z,13.90
2023-03-21T03:07:42.391Z,13.90
2023-03-21T03:10:53.214Z,13.90
2023-03-21T03:14:52.985Z,13.90
2023-03-21T03:18:13.424Z,13.90
2023-03-21T03:21:27.548Z,13.80
2023-03-21T03:24:39.821Z,13.90
2023-03-21T03:27:44.361Z,13.90
2023-03-21T03:31:06.972Z,13.90
2023-03-21T03:34:16.723Z,13.90
2023-03-21T03:37:26.396Z,13.80
2023-03-21T03:40:39.325Z,13.90
2023-03-21T03:43:48.197Z,13.90
2023-03-21T03:47:32.790Z,13.70
2023-03-21T03:51:06.185Z,13.80
2023-03-21T03:54:17.705Z,13.70
2023-03-21T03:57:20.381Z,13.70
2023-03-21T04:00:22.566Z,13.70
2023-03-21T04:03:24.966Z,13.60
2023-03-21T04:06:29.115Z,13.60
2023-03-21T04:09:43.142Z,13.60
2023-03-21T04:12:46.487Z,13.60
2023-03-21T04:15:48.459Z,13.60
2023-03-21T04:18:50.712Z,13.60
2023-03-21T04:21:53.279Z,13.60
2023-03-21T04:24:56.330Z,13.50
2023-03-21T04:27:58.578Z,13.50
2023-03-21T04:31:06.900Z,13.50
2023-03-21T04:34:13.151Z,13.40
2023-03-21T04:37:15.426Z,13.50
2023-03-21T04:40:19.097Z,13.40
2023-03-21T04:43:21.652Z,13.40
2023-03-21T04:46:24.391Z,13.50
2023-03-21T04:49:27.623Z,13.50
2023-03-21T04:52:29.714Z,13.50
2023-03-21T04:55:32.517Z,13.50
2023-03-21T04:58:34.804Z,13.40
2023-03-21T05:01:36.986Z,13.40
2023-03-21T05:04:39.569Z,13.40
2023-03-21T05:07:41.934Z,13.30
2023-03-21T05:10:44.306Z,13.30
2023-03-21T05:13:46.509Z,13.30
2023-03-21T05:16:53.476Z,13.30
2023-03-21T05:19:59.328Z,13.30
2023-03-21T05:23:01.366Z,13.30
2023-03-21T05:26:03.584Z,13.30
2023-03-21T05:29:06.141Z,13.30
2023-03-21T05:32:08.165Z,13.30
2023-03-21T05:35:10.752Z,13.30
2023-03-21T05:38:12.721Z,13.30
2023-03-21T05:41:19.060Z,13.30
2023-03-21T05:44:21.179Z,13.30
2023-03-21T05:47:23.316Z,13.30
2023-03-21T05:50:25.613Z,13.30
2023-03-21T05:53:27.811Z,13.30
2023-03-21T05:56:29.809Z,13.30
2023-03-21T05:59:31.922Z,13.30
2023-03-21T06:02:34.297Z,13.30
2023-03-21T06:05:37.699Z,13.30
2023-03-21T06:08:41.892Z,13.30
2023-03-21T06:11:48.738Z,13.20
2023-03-21T06:14:50.754Z,13.10
2023-03-21T06:17:52.998Z,13.10
2023-03-21T06:20:57.558Z,13.10
2023-03-21T06:23:59.605Z,13.10
2023-03-21T06:27:03.857Z,13.10
2023-03-21T06:30:08.561Z,13.10
2023-03-21T06:33:10.706Z,13.10
2023-03-21T06:36:12.873Z,13.10
2023-03-21T06:39:16.207Z,13.20
2023-03-21T06:42:18.358Z,13.10
2023-03-21T06:45:20.640Z,13.20
2023-03-21T06:48:22.747Z,13.10
2023-03-21T06:51:25.993Z,13.20
2023-03-21T06:54:28.187Z,13.30
2023-03-21T06:57:30.155Z,13.40
2023-03-21T07:00:32.982Z,13.70
2023-03-21T07:03:35.597Z,14.40
2023-03-21T07:06:40.847Z,15.20
2023-03-21T07:09:42.849Z,16.00
2023-03-21T07:12:44.836Z,16.80
2023-03-21T07:15:46.792Z,17.40
2023-03-21T07:18:48.986Z,17.80
2023-03-21T07:21:51.011Z,17.90
2023-03-21T07:25:04.006Z,18.30
2023-03-21T07:28:09.228Z,18.90
2023-03-21T07:31:16.433Z,18.90
2023-03-21T07:34:19.074Z,18.80
2023-03-21T07:37:21.726Z,18.70
2023-03-21T07:40:24.721Z,18.80
2023-03-21T07:43:31.293Z,19.30
2023-03-21T07:46:33.487Z,19.90
2023-03-21T07:49:37.818Z,20.80
2023-03-21T07:52:39.902Z,21.60
2023-03-21T07:55:41.899Z,22.50
2023-03-21T07:58:44.163Z,23.00
2023-03-21T08:01:46.165Z,23.90
2023-03-21T08:04:48.608Z,24.50
2023-03-21T08:07:51.382Z,25.10
2023-03-21T08:10:53.729Z,25.60
2023-03-21T08:13:56.459Z,26.00
2023-03-21T08:16:58.623Z,26.10
2023-03-21T08:20:00.732Z,26.70
2023-03-21T08:23:02.755Z,26.90
2023-03-21T08:26:04.930Z,27.30
2023-03-21T08:29:07.062Z,27.60
2023-03-21T08:32:10.135Z,27.60
2023-03-21T08:35:16.073Z,28.00
2023-03-21T08:38:18.176Z,28.10
2023-03-21T08:41:22.212Z,28.70
2023-03-21T08:44:26.282Z,28.80
2023-03-21T08:47:28.378Z,28.50
2023-03-21T08:50:31.908Z,28.80
2023-03-21T08:53:34.259Z,29.00
2023-03-21T08:56:37.464Z,29.10
2023-03-21T08:59:39.884Z,29.70
2023-03-21T09:02:42.986Z,29.80
2023-03-21T09:05:47.821Z,30.00
2023-03-21T09:08:52.859Z,29.60
2023-03-21T09:11:55.097Z,29.90
2023-03-21T09:14:57.132Z,30.40
2023-03-21T09:18:13.267Z,31.00
2023-03-21T09:21:17.389Z,30.80
2023-03-21T09:24:20.752Z,30.10
2023-03-21T09:27:28.313Z,30.00
2023-03-21T09:30:31.653Z,29.90
2023-03-21T09:33:35.388Z,30.20
2023-03-21T09:36:37.534Z,31.20
2023-03-21T09:39:44.997Z,31.70
2023-03-21T09:43:06.234Z,31.30
2023-03-21T09:46:25.341Z,32.70
2023-03-21T09:49:40.679Z,32.50
2023-03-21T09:53:18.231Z,33.10
2023-03-21T09:56:21.418Z,32.90
2023-03-21T09:59:38.332Z,31.60
2023-03-21T10:02:49.733Z,31.80
2023-03-21T10:05:58.778Z,31.80
2023-03-21T10:09:09.331Z,31.70
2023-03-21T10:12:22.453Z,32.30
2023-03-21T10:15:26.767Z,32.50
2023-03-21T10:18:31.245Z,32.40
2023-03-21T10:22:00.145Z,32.20
2023-03-21T10:24:56.495Z,31.90
2023-03-21T10:27:59.868Z,32.70
2023-03-21T10:31:08.377Z,33.40
2023-03-21T10:34:21.862Z,33.80
2023-03-21T10:37:25.959Z,34.20
2023-03-21T10:40:28.105Z,34.40
2023-03-21T10:43:34.022Z,33.40
2023-03-21T10:46:36.514Z,33.70
2023-03-21T10:50:05.456Z,33.50
2023-03-21T10:53:02.254Z,33.00
2023-03-21T10:56:11.389Z,32.80
2023-03-21T10:59:21.044Z,32.50
2023-03-21T11:02:31.062Z,32.70
2023-03-21T11:05:39.887Z,33.30
2023-03-21T11:08:49.158Z,33.20
2023-03-21T11:12:02.447Z,33.10
2023-03-21T11:15:40.873Z,32.50
2023-03-21T11:18:45.230Z,32.90
2023-03-21T11:21:47.421Z,33.10
2023-03-21T11:24:56.703Z,32.90
2023-03-21T11:27:59.415Z,32.90
2023-03-21T11:31:03.712Z,33.40
2023-03-21T11:34:10.374Z,33.60
2023-03-21T11:37:32.974Z,32.90
2023-03-21T11:40:37.024Z,32.80
2023-03-21T11:43:40.091Z,32.70
2023-03-21T11:46:42.337Z,32.60
2023-03-21T11:49:44.369Z,32.10
2023-03-21T11:53:00.005Z,29.80
2023-03-21T11:56:33.000Z,28.90
2023-03-21T11:59:52.255Z,28.20
2023-03-21T12:03:22.031Z,26.70
2023-03-21T12:06:52.903Z,26.00
2023-03-21T12:10:17.872Z,25.60
2023-03-21T12:13:41.570Z,25.30
2023-03-21T12:17:17.636Z,24.70
2023-03-21T12:20:49.597Z,24.70
2023-03-21T12:23:58.037Z,23.50
2023-03-21T12:27:17.952Z,23.20
2023-03-21T12:30:34.969Z,23.30
2023-03-21T12:34:05.906Z,23.40
2023-03-21T12:37:13.808Z,23.20
2023-03-21T12:40:24.496Z,23.00
2023-03-21T12:43:44.563Z,22.80
2023-03-21T12:47:02.488Z,22.70
2023-03-21T12:50:15.446Z,22.60
2023-03-21T12:53:36.227Z,22.70
2023-03-21T12:56:38.244Z,22.80
2023-03-21T12:59:46.114Z,22.80
2023-03-21T13:02:57.764Z,22.70
2023-03-21T13:06:05.263Z,22.50
2023-03-21T13:09:28.381Z,22.50
2023-03-21T13:12:58.001Z,22.60
2023-03-21T13:16:07.523Z,22.60
2023-03-21T13:19:21.461Z,22.50
2023-03-21T13:22:29.711Z,22.60
2023-03-21T13:25:33.426Z,22.50
2023-03-21T13:28:38.760Z,22.60
2023-03-21T13:31:52.002Z,22.60
2023-03-21T13:35:13.805Z,22.50
2023-03-21T13:38:22.921Z,22.30
2023-03-21T13:41:44.108Z,22.40
2023-03-21T13:44:56.823Z,22.40
2023-03-21T13:48:06.836Z,22.20
2023-03-21T13:51:09.017Z,22.30
2023-03-21T13:54:14.184Z,22.30
2023-03-21T13:57:43.751Z,22.30
2023-03-21T14:01:23.635Z,22.50
2023-03-21T14:04:42.020Z,22.50
2023-03-21T14:07:49.878Z,22.40
2023-03-21T14:10:59.801Z,22.40
2023-03-21T14:14:04.369Z,22.30
2023-03-21T14:17:22.544Z,22.30
2023-03-21T14:20:38.478Z,22.40
2023-03-21T14:23:41.035Z,22.60
2023-03-21T14:26:49.500Z,22.70
2023-03-21T14:29:53.438Z,22.90
2023-03-21T14:33:01.809Z,23.00
2023-03-21T14:36:15.973Z,23.00
2023-03-21T14:39:24.353Z,22.90
2023-03-21T14:42:26.616Z,22.70
2023-03-21T14:45:30.981Z,22.40
2023-03-21T14:48:34.957Z,22.50
2023-03-21T14:51:37.695Z,22.50
2023-03-21T14:54:46.424Z,22.60
2023-03-21T14:57:49.306Z,22.80
2023-03-21T15:00:55.303Z,22.70
2023-03-21T15:04:00.639Z,22.90
2023-03-21T15:07:05.166Z,22.90
2023-03-21T15:10:14.855Z,23.00
2023-03-21T15:13:30.992Z,22.90
2023-03-21T15:16:34.053Z,22.90
2023-03-21T15:19:40.082Z,22.90
2023-03-21T15:22:58.106Z,22.90
2023-03-21T15:26:04.263Z,22.80
2023-03-21T15:29:07.584Z,22.70
2023-03-21T15:32:22.866Z,22.50
2023-03-21T15:35:55.644Z,22.30
2023-03-21T15:39:00.871Z,22.10
2023-03-21T15:42:23.498Z,22.00
2023-03-21T15:45:29.375Z,21.90
2023-03-21T15:48:35.203Z,21.80
2023-03-21T15:51:37.574Z,21.60
2023-03-21T15:54:45.585Z,21.40
2023-03-21T15:57:50.065Z,21.40
2023-03-21T16:00:57.621Z,21.40
2023-03-21T16:04:07.862Z,21.40
2023-03-21T16:07:17.455Z,21.30
2023-03-21T16:10:37.351Z,21.40
2023-03-21T16:13:39.605Z,21.30
2023-03-21T16:16:41.902Z,21.30
2023-03-21T16:19:44.082Z,21.20
2023-03-21T16:22:47.495Z,21.10
2023-03-21T16:25:56.076Z,21.00
2023-03-21T16:28:58.587Z,20.70
2023-03-21T16:32:06.138Z,20.70
2023-03-21T16:35:08.700Z,20.80
2023-03-21T16:38:13.150Z,20.80
2023-03-21T16:41:17.293Z,20.80
2023-03-21T16:44:20.302Z,20.60
2023-03-21T16:47:25.635Z,20.50
2023-03-21T16:50:31.825Z,20.40
2023-03-21T16:53:38.950Z,20.40
2023-03-21T16:56:44.932Z,20.20
2023-03-21T16:59:47.606Z,20.10
2023-03-21T17:02:55.040Z,20.10
2023-03-21T17:05:57.144Z,20.00
2023-03-21T17:08:59.456Z,20.00
2023-03-21T17:12:01.530Z,20.00
2023-03-21T17:15:03.836Z,19.90
2023-03-21T17:18:06.095Z,19.90
2023-03-21T17:21:13.951Z,19.90
2023-03-21T17:24:16.913Z,19.80
2023-03-21T17:27:19.035Z,19.70
2023-03-21T17:30:30.989Z,19.70
2023-03-21T17:33:33.026Z,19.60
2023-03-21T17:36:38.955Z,19.50
2023-03-21T17:39:43.044Z,19.50
2023-03-21T17:42:45.320Z,19.30
2023-03-21T17:45:47.381Z,19.10
2023-03-21T17:48:49.960Z,19.10
2023-03-21T17:51:52.405Z,19.10
2023-03-21T17:54:59.161Z,19.10
2023-03-21T17:58:01.477Z,19.10
2023-03-21T18:01:03.589Z,19.10
2023-03-21T18:04:05.778Z,18.90
2023-03-21T18:07:15.604Z,18.80
2023-03-21T18:10:23.834Z,18.70
2023-03-21T18:13:25.956Z,18.50
2023-03-21T18:16:28.239Z,18.50
2023-03-21T18:19:31.335Z,18.40
2023-03-21T18:22:33.537Z,18.30
2023-03-21T18:25:35.604Z,18.10
2023-03-21T18:28:39.953Z,18.10
2023-03-21T18:31:51.659Z,18.10
2023-03-21T18:35:00.644Z,18.00
2023-03-21T18:38:03.032Z,18.00
2023-03-21T18:41:10.370Z,17.90
2023-03-21T18:44:16.613Z,17.80
2023-03-21T18:47:24.822Z,17.90
2023-03-21T18:50:27.564Z,17.70
2023-03-21T18:53:29.974Z,17.60
2023-03-21T18:59:54.418Z,17.40
2023-03-21T19:03:13.885Z,17.20
2023-03-21T19:06:21.239Z,17.10
2023-03-21T19:09:29.505Z,17.00
2023-03-21T19:12:34.276Z,16.90
2023-03-21T19:15:36.789Z,16.80
2023-03-21T19:18:53.971Z,16.70
2023-03-21T19:21:57.406Z,16.60
2023-03-21T19:25:00.453Z,16.60
2023-03-21T19:28:04.048Z,16.50
2023-03-21T19:31:07.782Z,16.40
2023-03-21T19:34:10.298Z,16.40
2023-03-21T19:37:12.420Z,16.40
2023-03-21T19:40:15.031Z,16.30
2023-03-21T19:43:33.632Z,16.20
2023-03-21T19:46:36.115Z,16.30
2023-03-21T19:50:20.834Z,16.10
2023-03-21T19:53:03.049Z,16.10
2023-03-21T19:56:19.654Z,16.00
2023-03-21T19:59:23.508Z,15.90
2023-03-21T20:02:35.388Z,15.90
2023-03-21T20:05:38.468Z,15.80
2023-03-21T20:12:05.748Z,15.80
2023-03-21T20:15:17.535Z,15.70
2023-03-21T20:18:20.809Z,15.60
2023-03-21T20:21:25.817Z,15.50
2023-03-21T20:24:28.440Z,15.60
2023-03-21T20:27:31.126Z,15.50
2023-03-21T20:30:33.109Z,15.40
2023-03-21T20:33:36.786Z,15.30
2023-03-21T20:36:43.514Z,15.30
2023-03-21T20:39:45.921Z,15.30
2023-03-21T20:42:50.286Z,15.20
2023-03-21T20:46:04.585Z,15.20
2023-03-21T20:49:06.826Z,15.10
2023-03-21T20:52:54.432Z,15.10
2023-03-21T20:55:37.565Z,15.00
2023-03-21T20:58:59.336Z,15.00
2023-03-21T21:02:03.192Z,14.90
2023-03-21T21:05:35.475Z,14.90
2023-03-21T21:08:30.522Z,14.90
2023-03-21T21:12:05.504Z,14.90
2023-03-21T21:14:56.225Z,14.80
2023-03-21T21:18:07.839Z,14.70
2023-03-21T21:21:10.371Z,14.70
2023-03-21T21:24:14.624Z,14.70
2023-03-21T21:27:16.939Z,14.70
2023-03-21T21:30:19.186Z,14.70
2023-03-21T21:33:22.361Z,14.70
2023-03-21T21:36:24.439Z,14.70
2023-03-21T21:39:27.681Z,14.70
2023-03-21T21:42:29.714Z,14.70
2023-03-21T21:45:31.823Z,14.70
2023-03-21T21:48:34.367Z,14.70
2023-03-21T21:51:36.608Z,14.70
2023-03-21T21:54:46.229Z,14.60
2023-03-21T21:57:50.779Z,14.60
2023-03-21T22:00:53.000Z,14.60
2023-03-21T22:03:57.605Z,14.50
2023-03-21T22:06:59.666Z,14.50
2023-03-21T22:10:05.620Z,14.50
2023-03-21T22:13:07.656Z,14.50
2023-03-21T22:16:10.043Z,14.50
2023-03-21T22:19:12.145Z,14.40
2023-03-21T22:22:14.098Z,14.40
2023-03-21T22:25:17.273Z,14.40
2023-03-21T22:28:22.179Z,14.40
2023-03-21T22:31:26.102Z,14.40
2023-03-21T22:34:29.070Z,14.40
2023-03-21T22:37:33.738Z,14.30
2023-03-21T22:40:35.699Z,14.30
2023-03-21T22:43:38.104Z,14.40
2023-03-21T22:46:40.393Z,14.30
2023-03-21T22:49:45.405Z,14.40
2023-03-21T22:52:49.708Z,14.40
2023-03-21T22:55:55.158Z,14.40
2023-03-21T22:58:57.352Z,14.30
2023-03-21T23:01:59.484Z,14.30
2023-03-21T23:05:01.690Z,14.40
2023-03-21T23:08:03.962Z,14.30
2023-03-21T23:11:09.671Z,14.30
2023-03-21T23:14:13.894Z,14.30
2023-03-21T23:17:16.452Z,14.30
2023-03-21T23:20:19.245Z,14.30
2023-03-21T23:23:21.323Z,14.30
2023-03-21T23:26:24.768Z,14.30
2023-03-21T23:29:26.946Z,14.20
2023-03-21T23:32:29.426Z,14.30
2023-03-21T23:35:34.812Z,14.30
2023-03-21T23:38:37.153Z,14.30
2023-03-21T23:41:39.208Z,14.30
2023-03-21T23:44:41.650Z,14.20
2023-03-21T23:47:43.823Z,14.20
2023-03-21T23:50:46.309Z,14.10
2023-03-21T23:53:48.583Z,14.10
2023-03-21T23:56:50.769Z,14.10
2023-03-21T23:59:55.609Z,14.10
